General Aviation Weather

Text Reports

Enter one or more of the following location identifiers separated by a space:

Zip Code, Four-Character ICAO or Three-Character IATA airport codes.

METAR - Aviation Routine Weather Report
KAFJ - Washington, Pennsylvania
Updated at 3:55 AM GMT on September 16, 2014 (11:55 PM EDT):
METAR KAFJ 160355Z AUTO 00000KT 10SM OVC100 13/12 A3006 RMK AO1
TAF - Terminal Area Forecast
KAFJ - Washington, Pennsylvania
Updated at 3:55 AM GMT on September 16, 2014 (11:55 PM EDT):
No TAF is currently available for this location.
Decoded:
No decoded TAF is available.
PIREP - Pilot Weather Report
KAFJ - Washington, Pennsylvania
Updated at 3:55 AM GMT on September 16, 2014 (11:55 PM EDT):
No PIREP is currently available for this location.
AIRMET - Airmens Meteorological Information
KAFJ - Washington, Pennsylvania
Updated at 3:55 AM GMT on September 16, 2014 (11:55 PM EDT):
No AIRMET is currently available for this location.
SIGMET - Significant Meteorological Information
KAFJ - Washington, Pennsylvania
Updated at 3:55 AM GMT on September 16, 2014 (11:55 PM EDT):
No SIGMET is currently available for this location.
NOTAM - Notice to Airmen
KAFJ - Washington, Pennsylvania
Updated at 3:55 AM GMT on September 16, 2014 (11:55 PM EDT):
No NOTAM is currently available for this location.
Forecast Area
KAFJ - Washington, Pennsylvania
Updated at 3:55 AM GMT on September 16, 2014 (11:55 PM EDT):
No NOTAM is currently available for this location.
Aviation Weather Maps